M I D A S
Marine Information and Data Acquisition System
Tripno 68 of the Zeeleeuw from 2001-11-29 08:50:00 to 2001-11-29 17:00:00
Back to CruiseResearch ActivitiesStationsMapUnderway DataData graphs

EquipmentUnitsComment
TimeDGPSUTC
LatitudeDGPSDM.mWGS84
LongitudeDGPSDM.mWGS84
HeadingGyrodeg 
SOGDGPSknotsSpeed over ground
COGDGPSdegCourse over ground
DepthEcho soundermeters200 kHz
Missing or incorrect values are displayed as -999
Navigation data collected by the RV Zeeleeuw from 2001-11-29 08:50:00 to 2001-11-29 17:00:00
Time Latitude Longitude Heading SOG COG Depth
2001-11-29 08:51:03 51°20.503 2°58.658 341.2 13.4 337.1 12.1
2001-11-29 08:52:03 51°20.709 2°58.525 342.3 13.4 338.6 12.3
2001-11-29 08:53:03 51°20.917 2°58.396 343.7 13.4 339.2 12.4
2001-11-29 08:54:03 51°21.123 2°58.266 342.2 13.3 337.9 13.2
2001-11-29 08:55:03 51°21.329 2°58.133 342 13.2 337.3 13.5
2001-11-29 08:56:03 51°21.533 2°58.003 343.7 13.2 338.5 14.3
2001-11-29 08:57:03 51°21.736 2°57.866 344.8 13.2 339.2 15
2001-11-29 08:58:03 51°21.949 2°57.754 346.3 13.3 343.9 16
2001-11-29 08:59:03 51°22.158 2°57.637 344 13.4 340.1 17.5
2001-11-29 09:00:03 51°22.368 2°57.523 345.5 13.4 341.6 18.8
2001-11-29 09:01:03 51°22.577 2°57.401 340.5 13.4 337.8 19
2001-11-29 09:02:03 51°22.785 2°57.275 342.3 13.5 339.1 19.4
2001-11-29 09:03:03 51°22.996 2°57.153 342.8 13.4 340.2 19.2
2001-11-29 09:04:02 51°23.2 2°57.034 342.2 13.2 338.2 18.5
2001-11-29 09:05:03 51°23.406 2°56.889 340.5 13.1 337.9 19.3
2001-11-29 09:06:03 51°23.608 2°56.752 336.2 13.2 332.3 20
2001-11-29 09:07:03 51°23.803 2°56.596 336.3 13 334.1 15
2001-11-29 09:08:03 51°24 2°56.451 340.2 13 337.1 16.8
2001-11-29 09:09:03 51°24.195 2°56.305 340.2 12.9 336.6 20.2
2001-11-29 09:10:03 51°24.394 2°56.16 341.2 13.4 337.4 23.7
2001-11-29 09:11:03 51°24.599 2°56.02 338 13.4 336.4 24.3
2001-11-29 09:12:03 51°24.802 2°55.872 339.2 13.4 336.9 25.2
2001-11-29 09:13:02 51°25.001 2°55.724 336.8 13.4 334.2 24.2
2001-11-29 09:14:01 51°25.199 2°55.59 340.7 13 337.3 19.4
2001-11-29 09:15:02 51°25.403 2°55.459 340.2 13 337.9 18
2001-11-29 09:16:03 51°25.603 2°55.308 337.7 13 334.1 17.8
2001-11-29 09:17:03 51°25.805 2°55.176 342.7 13.2 339.9 20.6
2001-11-29 09:18:03 51°26.009 2°55.044 341.2 13.3 337.7 23.9
2001-11-29 09:19:01 51°26.205 2°54.909 339.7 13.5 337 26.4
2001-11-29 09:20:01 51°26.41 2°54.773 342.3 13.3 340.2 25.9
2001-11-29 09:21:03 51°26.627 2°54.645 342.2 13.5 339.1 27.3
2001-11-29 09:22:03 51°26.837 2°54.511 341.5 13.6 337.1 25.9
2001-11-29 09:23:03 51°27.047 2°54.382 342.7 13.5 338.8 27.5
2001-11-29 09:24:03 51°27.255 2°54.243 339.2 13.6 337.7 27.2
2001-11-29 09:25:03 51°27.453 2°54.078 334.3 13.2 331.3 25.5
2001-11-29 09:26:02 51°27.647 2°53.922 337.7 13.1 334.4 25.5
2001-11-29 09:27:03 51°27.843 2°53.762 334.3 13 329.7 22.4
2001-11-29 09:28:03 51°28.041 2°53.605 341.2 13.1 337.7 21.1
2001-11-29 09:29:03 51°28.237 2°53.45 334.7 13.2 331.3 23.2
2001-11-29 09:30:03 51°28.434 2°53.286 334.2 13.3 330.7 25.1
2001-11-29 09:31:03 51°28.632 2°53.133 335 13.1 333.5 27.2
2001-11-29 09:32:03 51°28.828 2°52.976 334.5 13.2 331.4 28
2001-11-29 09:33:03 51°29.024 2°52.814 336.2 13.3 335.2 28.6
2001-11-29 09:34:03 51°29.218 2°52.649 330.7 13.2 329.1 31.2
2001-11-29 09:35:03 51°29.39 2°52.434 308.7 12.7 309.9 32.2
2001-11-29 09:36:03 51°29.391 2°52.172 245.8 7.3 244 32.8
2001-11-29 09:37:03 51°29.343 2°51.987 249.7 8.2 247.1 32.5
2001-11-29 09:38:03 51°29.287 2°51.773 250.2 8.8 247.8 32.2
2001-11-29 09:39:03 51°29.232 2°51.55 249.8 9 247 30.2
2001-11-29 09:40:03 51°29.17 2°51.321 249 9.4 245.7 30.8
2001-11-29 09:41:03 51°29.113 2°51.096 252.2 8.5 249.5 30.2
2001-11-29 09:42:03 51°29.057 2°50.885 250.3 9.2 248.1 30.4
2001-11-29 09:43:03 51°28.996 2°50.659 250.3 8.6 247.7 -999
2001-11-29 09:44:03 51°28.944 2°50.433 253 9.4 249.4 29.2
2001-11-29 09:45:03 51°28.893 2°50.212 252.2 8.9 249 27.8
2001-11-29 09:46:03 51°28.838 2°49.976 252.7 9.5 250 29.7
2001-11-29 09:47:03 51°28.789 2°49.754 252.2 8.7 249.9 28.4
2001-11-29 09:48:03 51°28.744 2°49.541 253 8.5 252.3 31.5
2001-11-29 09:49:03 51°28.701 2°49.35 252.3 6.9 250.7 31.1
2001-11-29 09:50:03 51°28.659 2°49.144 253 8.1 252.3 31.5
2001-11-29 09:51:01 51°28.593 2°48.952 228.2 8.5 225 34.9
2001-11-29 09:52:01 51°28.452 2°48.896 186.8 9.5 175.4 27.7
2001-11-29 09:53:03 51°28.268 2°48.938 182.3 11.5 172.2 32.4
2001-11-29 09:54:03 51°28.074 2°48.986 180.3 12.1 168.4 -999
2001-11-29 09:55:03 51°27.879 2°49.053 178.7 12.1 168 26
2001-11-29 09:56:03 51°27.685 2°49.142 169.5 12.4 158.4 27.9
2001-11-29 09:57:03 51°27.492 2°49.265 169.7 12.6 159.7 27.3
2001-11-29 09:58:03 51°27.292 2°49.389 165.8 13 155.5 26.5
2001-11-29 09:59:03 51°27.098 2°49.543 164.8 12.9 154.3 25.3
2001-11-29 10:00:03 51°26.902 2°49.682 166.5 12.8 157.2 24.3
2001-11-29 10:01:03 51°26.705 2°49.825 165.3 13.1 156 23
2001-11-29 10:02:03 51°26.509 2°49.971 165.3 13 155.1 25.6
2001-11-29 10:03:03 51°26.313 2°50.12 166 13 154.9 26
2001-11-29 10:04:03 51°26.116 2°50.26 173 12.8 162 25.7
2001-11-29 10:05:03 51°25.985 2°50.179 245.2 6.7 239.1 25.9
2001-11-29 10:06:03 51°25.924 2°50.02 237.7 7.2 232.4 25.8
2001-11-29 10:07:03 51°25.859 2°49.854 247.2 8 243.7 25.8
2001-11-29 10:08:03 51°25.797 2°49.673 243.3 8.3 240.1 26.3
2001-11-29 10:09:03 51°25.723 2°49.472 242.8 8.9 239.5 25.7
2001-11-29 10:10:03 51°25.651 2°49.274 244.2 8 240.9 25.7
2001-11-29 10:11:03 51°25.576 2°49.08 241.3 9 238.1 26.4
2001-11-29 10:12:03 51°25.496 2°48.873 241.8 9.1 238.7 27
2001-11-29 10:13:03 51°25.417 2°48.66 241.5 9.4 240.8 30.2
2001-11-29 10:14:03 51°25.336 2°48.436 241 9.9 239.8 32.2
2001-11-29 10:15:03 51°25.254 2°48.211 239.5 9.8 238.7 32.2
2001-11-29 10:16:03 51°25.167 2°47.989 239.5 10 238.5 31.4
2001-11-29 10:17:03 51°25.08 2°47.761 239.7 9.9 238.9 30.5
2001-11-29 10:18:03 51°24.998 2°47.543 238.7 9.7 238.8 31.7
2001-11-29 10:19:03 51°24.914 2°47.319 239.5 9.8 239.2 33
2001-11-29 10:20:03 51°24.831 2°47.091 239.3 9.9 240.1 32.5
2001-11-29 10:21:03 51°24.749 2°46.85 242 10.9 242.6 30.6
2001-11-29 10:22:03 51°24.681 2°46.581 261.8 11.2 264.4 28.7
2001-11-29 10:23:03 51°24.772 2°46.332 337.5 12 339.6 28
2001-11-29 10:24:03 51°24.99 2°46.252 338.5 13.5 342.6 27.4
2001-11-29 10:25:03 51°25.188 2°46.09 325.7 13.4 328.6 26.5
2001-11-29 10:26:03 51°25.387 2°45.927 332.5 13.5 335.8 27
2001-11-29 10:27:03 51°25.592 2°45.77 329.8 13.6 332.7 28.4
2001-11-29 10:28:03 51°25.797 2°45.612 328.3 13.7 332.1 28.7
2001-11-29 10:29:03 51°25.997 2°45.45 332.2 13.5 334.6 29.4
2001-11-29 10:30:03 51°26.205 2°45.31 336.2 13.5 340.2 30.9
2001-11-29 10:31:03 51°26.413 2°45.161 328 13.8 333.9 30.5
2001-11-29 10:32:03 51°26.618 2°44.997 329.2 13.5 333.2 31.3
2001-11-29 10:33:03 51°26.828 2°44.854 328.5 13.6 332.6 31.4
2001-11-29 10:34:03 51°27.033 2°44.704 334.8 13.6 339.9 30.8
2001-11-29 10:35:03 51°27.229 2°44.555 328.5 11.8 336.3 28.8
2001-11-29 10:36:03 51°27.309 2°44.367 269 7.7 276.5 29.6
2001-11-29 10:37:03 51°27.265 2°44.205 244.5 6.9 243.1 30.7
2001-11-29 10:38:03 51°27.215 2°44.026 243.2 7.6 244.2 29.2
2001-11-29 10:39:03 51°27.161 2°43.832 245.3 8 248.9 28.7
2001-11-29 10:40:03 51°27.105 2°43.635 243.8 7.4 246.2 29.9
2001-11-29 10:41:03 51°27.054 2°43.446 244 7.9 245.9 29.2
2001-11-29 10:42:03 51°26.997 2°43.246 244.2 8.3 246.7 32.7
2001-11-29 10:43:03 51°26.947 2°43.057 245.5 7.7 248.1 33
2001-11-29 10:44:03 51°26.893 2°42.857 244.5 8.1 246.7 33
2001-11-29 10:45:03 51°26.838 2°42.662 244.8 8.6 246.3 32.6
2001-11-29 10:46:03 51°26.779 2°42.453 244.8 8.4 245.7 34.4
2001-11-29 10:47:03 51°26.721 2°42.246 243.8 8.6 245.3 33.7
2001-11-29 10:48:03 51°26.67 2°42.056 244.7 7.9 246.5 33.6
2001-11-29 10:49:03 51°26.613 2°41.859 245.7 8 245.9 32.9
2001-11-29 10:50:03 51°26.573 2°41.696 244.8 6.5 248 -999
2001-11-29 10:51:03 51°26.53 2°41.533 244.2 7.3 246.8 32.2
2001-11-29 10:52:03 51°26.472 2°41.342 244 8.5 243.2 32.6
2001-11-29 10:53:03 51°26.414 2°41.148 244.5 8.1 243.4 33.1
2001-11-29 10:54:03 51°26.34 2°40.991 219.7 6.7 212.6 33.1
2001-11-29 10:55:03 51°26.211 2°41.028 162.5 9.6 146.7 33.2
2001-11-29 10:56:03 51°26.046 2°41.157 171 11.9 158.5 31.6
2001-11-29 10:57:03 51°25.861 2°41.258 171.5 11.8 159.4 27.4
2001-11-29 10:58:03 51°25.679 2°41.361 173.8 11.5 162 30.2
2001-11-29 10:59:03 51°25.493 2°41.447 175.5 11.7 163.5 26.7
2001-11-29 11:00:03 51°25.308 2°41.536 174.5 11.6 163.2 28
2001-11-29 11:01:03 51°25.14 2°41.622 176.3 9.8 162 29.9
2001-11-29 11:02:03 51°24.993 2°41.706 174.2 9.3 158.2 25.8
2001-11-29 11:03:03 51°24.857 2°41.791 177 8.8 161.4 26.8
2001-11-29 11:04:03 51°24.716 2°41.874 174.3 9 156 26.6
2001-11-29 11:05:03 51°24.572 2°41.957 175.5 9.5 161.2 28
2001-11-29 11:06:03 51°24.41 2°42.042 175 10.8 162 29.7
2001-11-29 11:07:02 51°24.24 2°42.131 175.5 11.1 162.6 28.9
2001-11-29 11:08:03 51°24.059 2°42.188 189.5 10.5 177.2 28.1
2001-11-29 11:09:03 51°23.89 2°42.154 204.2 10.1 193 28.9
2001-11-29 11:10:03 51°23.751 2°42.102 206.7 7.9 194.2 30.8
2001-11-29 11:11:02 51°23.626 2°42.054 206 8.4 193.1 29.1
2001-11-29 11:12:03 51°23.485 2°41.988 211.2 8.7 200.3 30.6
2001-11-29 11:13:03 51°23.348 2°41.904 210.8 9 199.1 30.4
2001-11-29 11:14:03 51°23.209 2°41.832 206.2 9 194.2 30.8
2001-11-29 11:15:03 51°23.078 2°41.735 217.8 8.5 210 30.6
2001-11-29 11:16:03 51°22.95 2°41.628 215.5 8.7 207.3 30.9
2001-11-29 11:17:03 51°22.823 2°41.533 215.5 8.4 205.3 30.4
2001-11-29 11:18:03 51°22.697 2°41.432 215 8.5 206.4 32
2001-11-29 11:19:03 51°22.569 2°41.332 215 8.4 205.7 32.6
2001-11-29 11:20:03 51°22.446 2°41.237 216.7 8.2 206.4 32.7
2001-11-29 11:21:03 51°22.319 2°41.133 215.3 8.6 206.8 31.7
2001-11-29 11:22:03 51°22.191 2°41.031 216 8.3 207.1 28.9
2001-11-29 11:23:03 51°22.069 2°40.935 215 8.3 206 31.5
2001-11-29 11:24:03 51°21.943 2°40.83 216.3 8.7 208.6 30.3
2001-11-29 11:25:03 51°21.811 2°40.719 215.2 9 207.8 30
2001-11-29 11:26:03 51°21.684 2°40.613 214.7 8.7 208.6 29.8
2001-11-29 11:27:03 51°21.554 2°40.501 215.3 8.8 206.5 31.6
2001-11-29 11:28:03 51°21.428 2°40.388 214.3 8.8 207.4 29.1
2001-11-29 11:29:03 51°21.306 2°40.289 215.5 8.5 207.9 30.3
2001-11-29 11:30:03 51°21.179 2°40.178 216.3 8.5 209.1 29
2001-11-29 11:31:03 51°21.053 2°40.073 215.2 8.5 208.2 29.2
2001-11-29 11:32:04 51°20.927 2°39.96 213.3 8.2 206.2 -999
2001-11-29 11:33:03 51°20.804 2°39.872 211.2 8.7 203.2 28.9
2001-11-29 11:34:03 51°20.673 2°39.78 211.5 8.8 204.1 29.2
2001-11-29 11:35:03 51°20.541 2°39.685 211.5 8.5 204.4 -999
2001-11-29 11:36:03 51°20.412 2°39.594 210.7 8.5 202.7 29.2
2001-11-29 11:37:03 51°20.284 2°39.506 211.7 8.3 204.5 29.2
2001-11-29 11:38:03 51°20.159 2°39.415 212.2 8.5 204.3 29.1
2001-11-29 11:39:03 51°20.031 2°39.32 212.3 8.3 206.4 29.6
2001-11-29 11:40:03 51°19.898 2°39.221 210.3 8.9 204.3 29.7
2001-11-29 11:41:03 51°19.764 2°39.118 210.5 9 204.4 30
2001-11-29 11:42:03 51°19.634 2°39.025 210.7 8.1 204.5 30.2
2001-11-29 11:43:03 51°19.503 2°38.925 211.8 8.8 206.6 30.9
2001-11-29 11:44:03 51°19.372 2°38.821 210.5 9 204.6 30.9
2001-11-29 11:45:03 51°19.239 2°38.721 211.8 8.9 206.5 31.1
2001-11-29 11:46:03 51°19.107 2°38.622 211.7 8.8 206 31.1
2001-11-29 11:47:03 51°18.973 2°38.515 211.8 9.2 207 30.6
2001-11-29 11:48:03 51°18.837 2°38.411 210.7 9.2 205.2 29.9
2001-11-29 11:49:03 51°18.701 2°38.304 212.5 9.1 207.9 29.6
2001-11-29 11:50:03 51°18.566 2°38.199 210.3 9 205 29.5
2001-11-29 11:51:03 51°18.43 2°38.093 211.3 9.1 206.3 29.3
2001-11-29 11:52:03 51°18.293 2°37.987 211.8 8.9 205.6 28.9
2001-11-29 11:53:03 51°18.16 2°37.885 212 8.5 206 27.9
2001-11-29 11:54:03 51°18.029 2°37.786 211.8 8.8 206.6 -999
2001-11-29 11:55:03 51°17.898 2°37.69 210.5 8.7 204 27.9
2001-11-29 11:56:03 51°17.767 2°37.592 211.3 8.5 204.6 -999
2001-11-29 11:57:03 51°17.633 2°37.491 210.8 9 204.9 30.7
2001-11-29 11:58:03 51°17.501 2°37.392 211.7 8.9 205.2 30
2001-11-29 11:59:03 51°17.371 2°37.295 212 8.8 205.9 30.1
2001-11-29 12:00:03 51°17.237 2°37.196 212.2 8.8 204.5 30
2001-11-29 12:01:03 51°17.11 2°37.108 210.8 8.4 203.9 30.4
2001-11-29 12:02:03 51°16.982 2°37.004 216.3 8.7 210.4 31.4
2001-11-29 12:03:01 51°16.864 2°36.888 215.2 8.5 210.6 30.2
2001-11-29 12:04:03 51°16.731 2°36.768 215.2 9 209.9 29.1
2001-11-29 12:05:03 51°16.604 2°36.65 214 8.5 209 29.2
2001-11-29 12:06:03 51°16.494 2°36.514 227.3 8.2 223.1 -999
2001-11-29 12:07:03 51°16.395 2°36.36 225.2 8.3 223.2 30.9
2001-11-29 12:08:01 51°16.293 2°36.209 225.2 8.9 223.2 30.2
2001-11-29 12:09:03 51°16.183 2°36.055 225.5 8.3 221.4 30.1
2001-11-29 12:10:03 51°16.083 2°35.908 225.2 7.9 221 29.6
2001-11-29 12:11:01 51°15.985 2°35.766 226.2 8.5 224.1 29.6
2001-11-29 12:12:03 51°15.878 2°35.611 224.8 8.4 221.4 29.2
2001-11-29 12:13:03 51°15.775 2°35.458 225.7 8.7 222.6 29
2001-11-29 12:14:03 51°15.669 2°35.309 225 8.7 221.9 29.9
2001-11-29 12:15:03 51°15.564 2°35.163 225.2 8.4 221.2 29.2
2001-11-29 12:16:03 51°15.461 2°35.014 225 8.3 220.9 29.6
2001-11-29 12:17:02 51°15.358 2°34.87 226.2 8.7 222.3 29.1
2001-11-29 12:18:03 51°15.252 2°34.712 224.8 8.9 221.9 29.3
2001-11-29 12:19:03 51°15.137 2°34.552 222.8 9.3 220.4 29.2
2001-11-29 12:20:03 51°15.021 2°34.404 224.5 8.7 219.4 29.4
2001-11-29 12:21:03 51°14.894 2°34.215 227.2 11.2 223.9 29.1
2001-11-29 12:22:03 51°14.758 2°34.019 225 10.9 222.4 28.7
2001-11-29 12:23:03 51°14.588 2°33.932 176.3 11.5 167 28.4
2001-11-29 12:24:03 51°14.445 2°34.185 131.7 13.8 121.9 26.9
2001-11-29 12:25:03 51°14.334 2°34.511 125.2 13.8 116.8 23.6
2001-11-29 12:26:03 51°14.241 2°34.848 116.8 14.6 106 23.5
2001-11-29 12:27:03 51°14.165 2°35.207 115.7 14.4 105.8 20.2
2001-11-29 12:28:03 51°14.101 2°35.569 118.8 13.8 109.5 15.8
2001-11-29 12:29:03 51°14.014 2°35.915 120 14.6 110.9 16
2001-11-29 12:30:03 51°14.006 2°36.285 93 14.4 85.1 17
2001-11-29 12:31:01 51°14.042 2°36.653 84 14.3 78.5 17.7
2001-11-29 12:32:01 51°14.066 2°37.044 92.5 15.3 86.1 19.4
2001-11-29 12:33:03 51°14.096 2°37.451 89.7 15.3 83.6 21.6
2001-11-29 12:34:03 51°14.128 2°37.849 92.2 14.9 82.9 21.8
2001-11-29 12:35:01 51°14.155 2°38.237 91.2 14.8 83.5 20.7
2001-11-29 12:36:01 51°14.126 2°38.611 120.2 14 112 16.7
2001-11-29 12:37:03 51°13.995 2°38.912 142.3 13 134.8 15
2001-11-29 12:38:03 51°13.813 2°39.087 172.8 12.4 165.5 16.9
2001-11-29 12:39:03 51°13.623 2°39.035 215.2 11.7 210.4 16.8
2001-11-29 12:40:03 51°13.472 2°38.841 216.2 11.8 211.9 16.1
2001-11-29 12:41:03 51°13.331 2°38.627 226.8 11.5 223.1 16.6
2001-11-29 12:42:03 51°13.176 2°38.435 224.7 11.7 221 16.8
2001-11-29 12:43:03 51°13.028 2°38.227 224.3 11.8 220.5 16.3
2001-11-29 12:44:03 51°12.88 2°38.017 225.3 12 222.3 15.7
2001-11-29 12:45:03 51°12.73 2°37.808 223.2 11.9 219 15
2001-11-29 12:46:03 51°12.576 2°37.611 222.7 11.9 218.9 14.3
2001-11-29 12:47:03 51°12.42 2°37.411 222.8 12 219.3 13.9
2001-11-29 12:48:03 51°12.265 2°37.21 222.3 12.1 218.8 13.2
2001-11-29 12:49:03 51°12.109 2°37.011 223.5 12 219.7 12.8
2001-11-29 12:50:03 51°11.952 2°36.809 223.3 12.1 219.1 12.3
2001-11-29 12:51:03 51°11.796 2°36.608 222.2 12.1 218.4 12.4
2001-11-29 12:52:03 51°11.639 2°36.407 222.8 12 217.9 12.2
2001-11-29 12:53:03 51°11.484 2°36.206 222 12.1 218.7 12.1
2001-11-29 12:54:03 51°11.328 2°36.003 222.7 12.1 219.1 12.2
2001-11-29 12:55:03 51°11.171 2°35.802 221.8 12 219.2 12.2
2001-11-29 12:56:03 51°11.014 2°35.6 222.8 12.2 219.3 11.6
2001-11-29 12:57:03 51°10.858 2°35.399 221.7 12 218.5 11.6
2001-11-29 12:58:03 51°10.702 2°35.196 222.2 12.1 219.3 11.2
2001-11-29 12:59:02 51°10.551 2°34.996 221.3 12.1 219.6 11.3
2001-11-29 13:00:03 51°10.388 2°34.8 219.3 12.2 216.8 11.1
2001-11-29 13:01:03 51°10.228 2°34.607 220.8 12.1 218.1 12
2001-11-29 13:02:03 51°10.068 2°34.413 220.3 12.1 217.8 12.9
2001-11-29 13:03:03 51°9.909 2°34.215 220.2 12.2 217.7 12.7
2001-11-29 13:04:03 51°9.746 2°34.021 220 12.1 217.1 12.8
2001-11-29 13:05:03 51°9.586 2°33.824 220.7 12.2 218 13.8
2001-11-29 13:06:03 51°9.407 2°33.693 186.3 11.9 181.2 17.5
2001-11-29 13:07:03 51°9.24 2°33.897 137 13.7 129.3 20.2
2001-11-29 13:08:03 51°9.196 2°34.256 85.8 14.7 80.8 19.8
2001-11-29 13:09:03 51°9.249 2°34.64 92.2 14.6 86.9 20.1
2001-11-29 13:10:03 51°9.297 2°35.031 85 15 79.9 18.8
2001-11-29 13:11:02 51°9.344 2°35.415 84.7 15.1 79.5 18.8
2001-11-29 13:12:03 51°9.393 2°35.811 84.3 15 78.8 18.1
2001-11-29 13:13:03 51°9.442 2°36.203 83 15.3 77.7 18.5
2001-11-29 13:14:03 51°9.491 2°36.589 84.8 14.6 79.4 17.8
2001-11-29 13:15:03 51°9.538 2°36.976 83.7 15.1 78.7 17.9
2001-11-29 13:16:03 51°9.586 2°37.359 84.7 14.5 79.7 17.4
2001-11-29 13:17:02 51°9.631 2°37.73 84.3 14.2 79.2 16.1
2001-11-29 13:18:03 51°9.685 2°38.112 83.5 14.2 78.6 15.2
2001-11-29 13:19:03 51°9.745 2°38.483 75.2 14.7 71.1 14.3
2001-11-29 13:20:03 51°9.827 2°38.846 70.3 14.8 68.2 14
2001-11-29 13:21:03 51°9.905 2°39.211 74.5 14.5 68.9 13.7
2001-11-29 13:22:03 51°9.985 2°39.576 74 14.7 70.4 13.3
2001-11-29 13:23:02 51°10.057 2°39.933 72.8 14.4 68.9 13.2
2001-11-29 13:24:03 51°10.137 2°40.298 78.2 14.2 73.1 13.1
2001-11-29 13:25:03 51°10.22 2°40.662 73.8 14.9 71 13
2001-11-29 13:26:03 51°10.299 2°41.023 75 14.5 69.7 12.9
2001-11-29 13:27:03 51°10.378 2°41.386 75.8 14.3 71.3 12.9
2001-11-29 13:28:03 51°10.46 2°41.744 74.8 14.2 71.3 12.9
2001-11-29 13:29:02 51°10.542 2°42.097 75 14.3 70.8 12.8
2001-11-29 13:30:03 51°10.626 2°42.465 72.7 14.7 69.6 12.7
2001-11-29 13:31:03 51°10.716 2°42.824 68.8 14.6 64.7 12.9
2001-11-29 13:32:03 51°10.841 2°43.161 64.7 14.8 61.1 13.2
2001-11-29 13:33:03 51°10.946 2°43.513 71 14.7 67.1 13.3
2001-11-29 13:34:02 51°11.041 2°43.862 71.5 14.4 67.6 13.5
2001-11-29 13:35:02 51°11.143 2°44.218 69 14.8 64.9 13.6
2001-11-29 13:36:02 51°11.244 2°44.572 66.8 14.9 64.5 13.7
2001-11-29 13:37:02 51°11.345 2°44.919 70.2 14.3 65.5 13.9
2001-11-29 13:38:02 51°11.451 2°45.261 65.8 14.6 62.8 13.9
2001-11-29 13:39:02 51°11.557 2°45.603 67.5 14.5 64.3 14.1
2001-11-29 13:40:02 51°11.667 2°45.944 67.5 14.5 63.3 14
2001-11-29 13:41:02 51°11.777 2°46.287 66.8 14.7 62.1 14.4
2001-11-29 13:42:02 51°11.883 2°46.629 66.5 14.1 62.9 14.2
2001-11-29 13:43:02 51°11.991 2°46.973 68.2 14.4 64.3 13.8
2001-11-29 13:44:02 51°12.104 2°47.324 64.5 15.1 62.1 14.2
2001-11-29 13:45:03 51°12.215 2°47.67 67.7 14.2 61.9 14
2001-11-29 13:46:03 51°12.329 2°48.017 67.7 15.2 63.3 14
2001-11-29 13:47:03 51°12.439 2°48.365 68.2 14.3 62.6 13.9
2001-11-29 13:48:03 51°12.546 2°48.71 68.5 14.6 63.9 13.7
2001-11-29 13:49:03 51°12.661 2°49.052 68 14.6 64.2 13.4
2001-11-29 13:50:03 51°12.768 2°49.401 66.7 15 61.5 13.1
2001-11-29 13:51:03 51°12.882 2°49.748 66.7 14.6 63.5 13.1
2001-11-29 13:52:03 51°12.993 2°50.091 63 14.7 58.6 12.9
2001-11-29 13:53:03 51°13.119 2°50.418 65.2 14.5 60.4 12.9
2001-11-29 13:54:03 51°13.233 2°50.757 64.5 14.5 60.3 12.5
2001-11-29 13:55:03 51°13.352 2°51.098 65.7 14.6 60.6 12.5
2001-11-29 13:56:03 51°13.467 2°51.439 68 14.1 62.2 12.4
2001-11-29 13:57:03 51°13.592 2°51.77 64.7 14.4 59.4 12.2
2001-11-29 13:58:03 51°13.712 2°52.103 62.8 14.4 60.2 12
2001-11-29 13:59:03 51°13.835 2°52.435 61.8 14.9 58.3 11.9
2001-11-29 14:00:03 51°13.956 2°52.775 67.8 15.1 63.4 11.9
2001-11-29 14:01:03 51°14.054 2°53.131 72.2 14.6 67.8 11.3
2001-11-29 14:02:03 51°14.157 2°53.481 73.2 14.6 67.9 11.1
2001-11-29 14:03:03 51°14.258 2°53.827 68.3 13.5 64.8 10.3
2001-11-29 14:04:03 51°14.332 2°54.049 65.5 7.8 61.2 10.9
2001-11-29 14:05:03 51°14.381 2°54.205 70.2 6 63.5 11.2
2001-11-29 14:06:03 51°14.42 2°54.343 77.3 5.5 67.1 9.7
2001-11-29 14:07:03 51°14.455 2°54.476 75.7 5.3 65.5 11.4
2001-11-29 14:08:03 51°14.508 2°54.578 36.5 4.8 36.6 11.4
2001-11-29 14:09:03 51°14.58 2°54.627 10.7 4.8 17 11.2
2001-11-29 14:10:03 51°14.644 2°54.657 356.2 3.5 13.2 11
2001-11-29 14:11:03 51°14.692 2°54.672 343.8 2.6 10.6 10.9
2001-11-29 14:12:03 51°14.728 2°54.685 335.3 2.1 15.8 10.8
2001-11-29 14:13:03 51°14.759 2°54.7 330.7 1.8 19.2 10.8
2001-11-29 14:14:03 51°14.786 2°54.719 328.5 1.7 25.7 10.6
2001-11-29 14:15:03 51°14.81 2°54.74 326.3 1.6 30 10.6
2001-11-29 14:16:03 51°14.834 2°54.765 324.3 1.7 33 10.6
2001-11-29 14:17:03 51°14.855 2°54.791 324.8 1.6 41 10.7
2001-11-29 14:18:03 51°14.876 2°54.819 323.8 1.6 38.1 10.5
2001-11-29 14:19:03 51°14.896 2°54.848 327.7 1.7 44.9 10.4
2001-11-29 14:20:03 51°14.916 2°54.881 334.3 1.7 50.1 9.9
2001-11-29 14:21:03 51°14.932 2°54.918 341.3 1.6 51.9 10.4
2001-11-29 14:22:03 51°14.95 2°54.951 344.8 1.6 47.3 10.1
2001-11-29 14:23:03 51°14.969 2°54.981 341.3 1.7 43.2 10
2001-11-29 14:24:03 51°14.991 2°55.012 338.3 1.6 41.6 10
2001-11-29 14:25:03 51°15.011 2°55.04 333.2 1.7 42.6 10.2
2001-11-29 14:26:03 51°15.031 2°55.07 332 1.7 41.5 10.1
2001-11-29 14:27:03 51°15.049 2°55.098 332.8 1.5 42.2 9.8
2001-11-29 14:28:03 51°15.069 2°55.128 336.8 1.7 44 9.9
2001-11-29 14:29:03 51°15.088 2°55.157 339.3 1.6 44.8 9.7
2001-11-29 14:30:03 51°15.107 2°55.187 339.5 1.6 44.4 9.3
2001-11-29 14:31:03 51°15.125 2°55.218 342.7 1.7 47.2 9.8
2001-11-29 14:32:03 51°15.143 2°55.248 343.3 1.6 45.9 9.3
2001-11-29 14:33:03 51°15.162 2°55.277 341.2 1.5 42.1 9.8
2001-11-29 14:34:03 51°15.181 2°55.304 337.2 1.5 41 9.4
2001-11-29 14:35:03 51°15.198 2°55.33 334.7 1.4 41.4 9.6
2001-11-29 14:36:03 51°15.216 2°55.356 335.2 1.3 41 9.7
2001-11-29 14:37:03 51°15.234 2°55.382 335.3 1.5 41.4 -999
2001-11-29 14:38:03 51°15.251 2°55.407 335.7 1.4 41 9.3
2001-11-29 14:39:02 51°15.269 2°55.43 333.8 1.3 37.9 8.8
2001-11-29 14:40:03 51°15.288 2°55.453 333 1.4 36.7 -999
2001-11-29 14:41:03 51°15.308 2°55.477 332.8 1.5 38.7 9.1
2001-11-29 14:42:03 51°15.326 2°55.502 332.7 1.5 42.8 8.9
2001-11-29 14:43:03 51°15.343 2°55.528 334.5 1.5 40.6 9
2001-11-29 14:44:03 51°15.36 2°55.553 332.3 1.3 40.5 9
2001-11-29 14:45:03 51°15.377 2°55.578 332.3 1.4 43.7 8.8
2001-11-29 14:46:03 51°15.394 2°55.603 335 1.3 44.6 8.7
2001-11-29 14:47:03 51°15.408 2°55.628 334.8 1.3 46 8.9
2001-11-29 14:48:03 51°15.424 2°55.655 335.7 1.3 47.4 8.8
2001-11-29 14:49:03 51°15.438 2°55.679 335.8 1.3 45.3 8.7
2001-11-29 14:50:03 51°15.456 2°55.701 335.8 1.4 22 -999
2001-11-29 14:51:03 51°15.489 2°55.686 304.5 2.3 331.3 8.8
2001-11-29 14:52:03 51°15.513 2°55.641 272.5 2.1 292.6 8.9
2001-11-29 14:53:03 51°15.51 2°55.592 236.5 1.8 239.6 8.9
2001-11-29 14:54:03 51°15.48 2°55.554 219.7 2.6 210.8 8.9
2001-11-29 14:55:03 51°15.437 2°55.524 211.3 3.1 201.8 9.1
2001-11-29 14:56:03 51°15.399 2°55.504 209.7 1.8 191.6 8.8
2001-11-29 14:57:03 51°15.378 2°55.505 202.3 1 160.3 9
2001-11-29 14:58:02 51°15.367 2°55.519 200 0.8 124.3 8.6
2001-11-29 14:59:03 51°15.365 2°55.538 199 0.8 94.3 8.7
2001-11-29 15:00:03 51°15.365 2°55.561 200.2 0.8 83.9 8.6
2001-11-29 15:01:03 51°15.367 2°55.58 204.5 0.8 77.7 8.7
2001-11-29 15:02:03 51°15.371 2°55.603 201.2 0.9 75.1 8.7
2001-11-29 15:03:02 51°15.376 2°55.631 190.3 1.2 74.4 8.6
2001-11-29 15:04:03 51°15.349 2°55.63 221.8 1.9 206.9 8.7
2001-11-29 15:05:03 51°15.335 2°55.617 228.2 0.7 211.6 8.7
2001-11-29 15:06:03 51°15.328 2°55.612 229 0.5 198 8.7
2001-11-29 15:07:02 51°15.323 2°55.606 237.5 0.3 194.9 7.9
2001-11-29 15:08:03 51°15.323 2°55.606 241.3 0.1 58.7 8.3
2001-11-29 15:09:03 51°15.325 2°55.608 235.5 0.2 46.7 8.6
2001-11-29 15:10:03 51°15.324 2°55.617 218.7 0.3 98.5 8.7
2001-11-29 15:11:03 51°15.321 2°55.628 208 0.5 127.7 8.7
2001-11-29 15:12:03 51°15.312 2°55.641 205.5 0.7 140.9 8.7
2001-11-29 15:13:03 51°15.299 2°55.644 213 1 188.6 8.8
2001-11-29 15:14:02 51°15.282 2°55.632 228.5 1.2 215.2 8.9
2001-11-29 15:15:03 51°15.273 2°55.606 248.5 0.9 263.7 8.5
2001-11-29 15:16:03 51°15.279 2°55.591 268.5 0.9 310.3 8.8
2001-11-29 15:17:03 51°15.22 2°55.521 200.2 7.4 197.4 8.7
2001-11-29 15:18:03 51°15.104 2°55.476 194.7 6.2 187.4 8.7
2001-11-29 15:19:03 51°15.02 2°55.445 201.5 4.9 194 9.1
2001-11-29 15:20:03 51°14.947 2°55.405 206.2 4.5 199.4 9
2001-11-29 15:21:02 51°14.878 2°55.352 215.7 4.9 209.3 9.3
2001-11-29 15:22:03 51°14.792 2°55.26 223.5 7.9 219.8 9.1
2001-11-29 15:23:03 51°14.662 2°55.118 209.3 10.2 207.3 9.5
2001-11-29 15:24:03 51°14.496 2°55.046 184.7 10.6 184.4 9.8
2001-11-29 15:25:03 51°14.337 2°55.137 141 10.3 140.3 10.1
2001-11-29 15:26:03 51°14.243 2°55.292 141.2 6.3 136.3 10.1
2001-11-29 15:27:03 51°14.182 2°55.361 154.7 3.9 150 9
2001-11-29 15:28:03 51°14.125 2°55.408 157.5 4.2 153.6 9.8
2001-11-29 15:29:03 51°14.055 2°55.463 158.7 4.9 153.7 9.7
2001-11-29 15:30:03 51°13.977 2°55.522 158.2 5.3 154 9.6
2001-11-29 15:31:03 51°13.896 2°55.584 158.8 5.4 154.4 9.8
2001-11-29 15:32:03 51°13.816 2°55.646 158.3 5.3 154.3 10.3
2001-11-29 15:33:03 51°13.758 2°55.703 139.5 3.3 139.2 10.2
2001-11-29 15:34:23 51°13.721 2°55.78 126.7 2.6 126.2 10.1
2001-11-29 15:35:23 51°13.704 2°55.834 112.2 2 106.5 10.1
2001-11-29 15:36:23 51°13.697 2°55.88 115.5 1.7 105.3 10.1
2001-11-29 15:37:23 51°13.693 2°55.896 133.2 0.3 133.5 10.1
2001-11-29 15:38:23 51°13.689 2°55.899 139.3 0.4 184.2 -999
2001-11-29 15:39:23 51°13.687 2°55.906 124.2 0.2 79.1 -999